createdAt,value
2022-12-25T00:01:24.114Z,100288.52
2022-12-25T00:03:52.308Z,100294.43
2022-12-25T00:06:20.402Z,100300.59
2022-12-25T00:08:47.799Z,100295.31
2022-12-25T00:11:17.547Z,100294.94
2022-12-25T00:13:44.765Z,100291.06
2022-12-25T00:16:19.977Z,100289.23
2022-12-25T00:18:48.036Z,100299.84
2022-12-25T00:21:15.950Z,100302.09
2022-12-25T00:23:43.593Z,100310.34
2022-12-25T00:26:17.987Z,100309.63
2022-12-25T00:28:45.625Z,100316.46
2022-12-25T00:31:15.869Z,100319.60
2022-12-25T00:33:45.461Z,100319.73
2022-12-25T00:36:15.396Z,100322.86
2022-12-25T00:38:43.426Z,100331.09
2022-12-25T00:41:16.301Z,100335.16
2022-12-25T00:43:43.688Z,100336.88
2022-12-25T00:46:12.896Z,100346.11
2022-12-25T00:48:40.746Z,100351.48
2022-12-25T00:51:11.306Z,100351.70
2022-12-25T00:53:39.000Z,100359.83
2022-12-25T00:56:07.799Z,100363.16
2022-12-25T00:58:35.623Z,100360.35
2022-12-25T01:01:03.685Z,100362.66
2022-12-25T01:03:31.399Z,100366.64
2022-12-25T01:06:01.219Z,100373.77
2022-12-25T01:08:31.024Z,100377.75
2022-12-25T01:11:00.231Z,100381.53
2022-12-25T01:13:29.161Z,100378.78
2022-12-25T01:15:56.367Z,100376.55
2022-12-25T01:18:24.986Z,100367.73
2022-12-25T01:20:52.474Z,100364.98
2022-12-25T01:23:19.700Z,100363.38
2022-12-25T01:25:46.801Z,100360.85
2022-12-25T01:28:14.107Z,100362.12
2022-12-25T01:30:48.508Z,100369.13
2022-12-25T01:33:15.756Z,100368.79
2022-12-25T01:35:42.897Z,100371.20
2022-12-25T01:38:10.053Z,100370.58
2022-12-25T01:40:37.187Z,100367.76
2022-12-25T01:43:05.230Z,100370.05
2022-12-25T01:45:42.451Z,100368.16
2022-12-25T01:48:14.876Z,100369.71
2022-12-25T01:50:46.343Z,100371.33
2022-12-25T01:53:14.372Z,100378.67
2022-12-25T01:55:43.784Z,100380.92
2022-12-25T01:58:11.033Z,100379.30
2022-12-25T02:00:38.232Z,100381.33
2022-12-25T02:03:06.034Z,100384.27
2022-12-25T02:05:35.063Z,100380.21
2022-12-25T02:08:08.430Z,100382.94
2022-12-25T02:10:35.827Z,100384.39
2022-12-25T02:13:03.285Z,100389.20
2022-12-25T02:15:44.699Z,100389.31
2022-12-25T02:18:34.326Z,100391.25
2022-12-25T02:21:23.304Z,100393.67
2022-12-25T02:24:01.500Z,100381.02
2022-12-25T02:27:03.027Z,100379.90
2022-12-25T02:29:33.049Z,100374.06
2022-12-25T02:32:14.936Z,100366.88
2022-12-25T02:34:53.026Z,100365.89
2022-12-25T02:37:29.569Z,100361.38
2022-12-25T02:40:06.858Z,100359.28
2022-12-25T02:43:02.635Z,100358.30
2022-12-25T02:45:59.722Z,100362.42
2022-12-25T02:48:50.011Z,100367.05
2022-12-25T02:51:38.698Z,100366.48
2022-12-25T02:54:31.102Z,100368.55
2022-12-25T02:57:21.300Z,100373.17
2022-12-25T03:00:09.535Z,100376.05
2022-12-25T03:02:59.089Z,100378.60
2022-12-25T03:05:46.358Z,100381.68
2022-12-25T03:08:19.333Z,100380.98
2022-12-25T03:11:14.324Z,100379.12
2022-12-25T03:13:45.697Z,100373.92
2022-12-25T03:16:32.478Z,100380.25
2022-12-25T03:19:00.327Z,100384.95
2022-12-25T03:21:59.709Z,100385.90
2022-12-25T03:24:46.499Z,100384.85
2022-12-25T03:27:13.597Z,100384.05
2022-12-25T03:29:59.689Z,100387.11
2022-12-25T03:32:39.100Z,100387.59
2022-12-25T03:35:25.723Z,100386.72
2022-12-25T03:38:46.617Z,100384.16
2022-12-25T03:41:51.629Z,100381.75
2022-12-25T03:44:46.637Z,100384.70
2022-12-25T03:47:57.732Z,100388.16
2022-12-25T03:50:56.051Z,100393.85
2022-12-25T03:53:54.591Z,100399.20
2022-12-25T03:56:41.423Z,100403.70
2022-12-25T03:59:27.392Z,100401.64
2022-12-25T04:02:13.379Z,100403.56
2022-12-25T04:04:59.154Z,100403.59
2022-12-25T04:07:44.880Z,100400.56
2022-12-25T04:10:30.622Z,100399.58
2022-12-25T04:13:16.567Z,100397.98
2022-12-25T04:16:02.291Z,100401.90
2022-12-25T04:18:48.318Z,100403.48
2022-12-25T04:21:34.587Z,100404.52
2022-12-25T04:24:20.323Z,100408.92
2022-12-25T04:27:06.014Z,100412.65
2022-12-25T04:29:51.497Z,100415.76
2022-12-25T04:32:37.210Z,100412.88
2022-12-25T04:35:23.441Z,100413.17
2022-12-25T04:37:50.644Z,100421.75
2022-12-25T04:40:18.029Z,100425.80
2022-12-25T04:42:45.106Z,100418.75
2022-12-25T04:45:12.383Z,100417.21
2022-12-25T04:47:39.516Z,100422.30
2022-12-25T04:50:07.401Z,100426.70
2022-12-25T04:52:41.398Z,100428.72
2022-12-25T04:55:10.513Z,100430.41
2022-12-25T04:57:38.285Z,100432.61
2022-12-25T05:00:06.578Z,100430.27
2022-12-25T05:02:33.882Z,100427.12
2022-12-25T05:05:01.405Z,100430.29
2022-12-25T05:07:28.726Z,100433.40
2022-12-25T05:09:55.775Z,100432.95
2022-12-25T05:12:22.918Z,100426.55
2022-12-25T05:14:50.580Z,100429.49
2022-12-25T05:17:17.731Z,100426.18
2022-12-25T05:19:44.942Z,100420.09
2022-12-25T05:22:12.009Z,100424.27
2022-12-25T05:24:39.132Z,100421.14
2022-12-25T05:27:06.207Z,100422.64
2022-12-25T05:29:33.333Z,100427.33
2022-12-25T05:32:00.557Z,100432.30
2022-12-25T05:34:27.689Z,100434.30
2022-12-25T05:36:56.593Z,100435.06
2022-12-25T05:39:24.542Z,100439.38
2022-12-25T05:41:51.950Z,100446.23
2022-12-25T05:44:19.159Z,100450.63
2022-12-25T05:46:46.423Z,100456.57
2022-12-25T05:49:13.684Z,100456.06
2022-12-25T05:51:40.808Z,100460.21
2022-12-25T05:54:08.118Z,100459.17
2022-12-25T05:56:35.342Z,100469.72
2022-12-25T05:59:02.542Z,100475.79
2022-12-25T06:01:29.756Z,100472.27
2022-12-25T06:03:57.711Z,100484.37
2022-12-25T06:06:25.027Z,100489.38
2022-12-25T06:08:55.148Z,100487.18
2022-12-25T06:11:22.620Z,100487.46
2022-12-25T06:13:51.979Z,100497.34
2022-12-25T06:16:20.180Z,100496.83
2022-12-25T06:18:52.128Z,100503.40
2022-12-25T06:21:19.454Z,100505.77
2022-12-25T06:23:46.769Z,100509.97
2022-12-25T06:26:17.377Z,100513.86
2022-12-25T06:28:45.678Z,100517.30
2022-12-25T06:31:16.067Z,100519.02
2022-12-25T06:33:43.959Z,100519.76
2022-12-25T06:36:15.730Z,100515.81
2022-12-25T06:38:43.009Z,100516.86
2022-12-25T06:41:13.005Z,100520.94
2022-12-25T06:43:40.365Z,100529.77
2022-12-25T06:46:11.234Z,100533.16
2022-12-25T06:48:40.354Z,100540.80
2022-12-25T06:51:08.068Z,100550.52
2022-12-25T06:53:40.206Z,100552.37
2022-12-25T06:56:15.775Z,100556.67
2022-12-25T06:58:51.271Z,100565.39
2022-12-25T07:01:32.466Z,100568.90
2022-12-25T07:04:11.580Z,100576.26
2022-12-25T07:06:38.746Z,100583.05
2022-12-25T07:09:05.922Z,100583.13
2022-12-25T07:11:33.168Z,100589.02
2022-12-25T07:14:00.168Z,100588.23
2022-12-25T07:16:27.346Z,100589.87
2022-12-25T07:18:54.586Z,100591.94
2022-12-25T07:21:22.199Z,100593.50
2022-12-25T07:23:50.396Z,100600.77
2022-12-25T07:26:17.683Z,100602.93
2022-12-25T07:28:45.108Z,100604.55
2022-12-25T07:31:17.268Z,100607.60
2022-12-25T07:33:45.477Z,100611.91
2022-12-25T07:36:14.003Z,100615.70
2022-12-25T07:38:44.419Z,100622.86
2022-12-25T07:41:13.555Z,100625.73
2022-12-25T07:43:41.020Z,100633.40
2022-12-25T07:46:08.473Z,100643.70
2022-12-25T07:48:36.563Z,100649.38
2022-12-25T07:51:06.765Z,100649.89
2022-12-25T07:53:35.365Z,100648.58
2022-12-25T07:56:07.461Z,100653.98
2022-12-25T07:58:35.284Z,100655.42
2022-12-25T08:01:09.023Z,100658.23
2022-12-25T08:03:37.105Z,100661.52
2022-12-25T08:06:07.123Z,100661.64
2022-12-25T08:08:34.925Z,100667.53
2022-12-25T08:11:02.317Z,100677.21
2022-12-25T08:13:34.015Z,100678.77
2022-12-25T08:16:03.236Z,100678.59
2022-12-25T08:18:31.886Z,100679.00
2022-12-25T08:21:04.208Z,100680.21
2022-12-25T08:23:31.471Z,100683.44
2022-12-25T08:26:05.407Z,100675.10
2022-12-25T08:28:33.731Z,100673.21
2022-12-25T08:31:06.939Z,100678.93
2022-12-25T08:33:35.879Z,100679.60
2022-12-25T08:36:08.002Z,100688.08
2022-12-25T08:38:35.432Z,100690.56
2022-12-25T08:41:02.864Z,100692.01
2022-12-25T08:43:30.435Z,100687.63
2022-12-25T08:45:57.680Z,100686.34
2022-12-25T08:48:24.894Z,100681.09
2022-12-25T08:50:53.799Z,100685.29
2022-12-25T08:53:21.162Z,100688.43
2022-12-25T08:55:48.448Z,100689.52
2022-12-25T08:58:16.633Z,100688.50
2022-12-25T09:00:43.907Z,100691.96
2022-12-25T09:03:11.158Z,100686.17
2022-12-25T09:05:38.639Z,100686.00
2022-12-25T09:08:05.934Z,100679.25
2022-12-25T09:10:37.050Z,100672.08
2022-12-25T09:13:05.163Z,100670.91
2022-12-25T09:15:32.523Z,100670.29
2022-12-25T09:17:59.743Z,100670.70
2022-12-25T09:20:26.916Z,100666.57
2022-12-25T09:22:53.982Z,100664.98
2022-12-25T09:25:21.162Z,100667.52
2022-12-25T09:27:48.263Z,100665.17
2022-12-25T09:30:15.596Z,100666.66
2022-12-25T09:32:42.750Z,100678.38
2022-12-25T09:35:10.227Z,100680.80
2022-12-25T09:37:37.300Z,100682.84
2022-12-25T09:40:05.208Z,100678.20
2022-12-25T09:42:34.566Z,100674.25
2022-12-25T09:45:05.925Z,100672.90
2022-12-25T09:47:38.576Z,100680.38
2022-12-25T09:50:14.148Z,100677.36
2022-12-25T09:52:46.561Z,100676.95
2022-12-25T09:55:24.303Z,100681.48
2022-12-25T09:57:57.548Z,100682.77
2022-12-25T10:00:40.950Z,100685.95
2022-12-25T10:03:25.179Z,100690.32
2022-12-25T10:06:01.409Z,100695.89
2022-12-25T10:08:53.414Z,100702.35
2022-12-25T10:11:52.900Z,100705.91
2022-12-25T10:14:31.144Z,100710.09
2022-12-25T10:16:58.507Z,100712.46
2022-12-25T10:19:51.982Z,100714.35
2022-12-25T10:22:42.998Z,100718.58
2022-12-25T10:25:21.685Z,100717.69
2022-12-25T10:28:05.714Z,100715.73
2022-12-25T10:30:32.841Z,100716.28
2022-12-25T10:33:00.647Z,100714.79
2022-12-25T10:35:29.887Z,100708.65
2022-12-25T10:38:16.508Z,100704.70
2022-12-25T10:41:14.153Z,100702.56
2022-12-25T10:43:52.180Z,100703.77
2022-12-25T10:46:21.182Z,100698.14
2022-12-25T10:48:57.496Z,100694.06
2022-12-25T10:51:33.091Z,100692.76
2022-12-25T10:54:01.683Z,100690.98
2022-12-25T10:56:28.985Z,100686.45
2022-12-25T10:59:06.990Z,100689.55
2022-12-25T11:01:34.125Z,100685.60
2022-12-25T11:04:01.851Z,100686.29
2022-12-25T11:06:32.738Z,100678.38
2022-12-25T11:09:02.342Z,100679.11
2022-12-25T11:11:31.464Z,100681.34
2022-12-25T11:14:01.539Z,100686.96
2022-12-25T11:16:33.941Z,100687.94
2022-12-25T11:19:01.210Z,100687.76
2022-12-25T11:21:34.208Z,100689.63
2022-12-25T11:24:03.430Z,100694.06
2022-12-25T11:26:37.334Z,100690.42
2022-12-25T11:29:17.766Z,100691.59
2022-12-25T11:31:47.620Z,100689.55
2022-12-25T11:34:35.566Z,100689.52
2022-12-25T11:37:04.545Z,100686.94
2022-12-25T11:39:37.627Z,100683.52
2022-12-25T11:42:16.399Z,100682.80
2022-12-25T11:45:03.723Z,100680.34
2022-12-25T11:47:33.776Z,100678.92
2022-12-25T11:50:27.599Z,100678.73
2022-12-25T11:52:56.122Z,100681.66
2022-12-25T11:55:36.801Z,100689.20
2022-12-25T11:58:16.130Z,100690.73
2022-12-25T12:00:46.724Z,100691.60
2022-12-25T12:03:19.802Z,100694.31
2022-12-25T12:05:51.382Z,100696.82
2022-12-25T12:08:18.480Z,100694.20
2022-12-25T12:11:16.747Z,100694.38
2022-12-25T12:14:10.873Z,100698.70
2022-12-25T12:16:38.345Z,100699.60
2022-12-25T12:19:24.810Z,100700.73
2022-12-25T12:21:54.744Z,100696.90
2022-12-25T12:24:24.388Z,100694.52
2022-12-25T12:27:07.142Z,100693.54
2022-12-25T12:29:43.257Z,100682.91
2022-12-25T12:32:44.660Z,100684.14
2022-12-25T12:35:19.471Z,100687.17
2022-12-25T12:37:51.556Z,100685.60
2022-12-25T12:40:24.214Z,100683.87
2022-12-25T12:42:52.543Z,100681.23
2022-12-25T12:45:25.687Z,100675.67
2022-12-25T12:47:53.525Z,100674.32
2022-12-25T12:50:36.720Z,100670.22
2022-12-25T12:53:34.188Z,100666.71
2022-12-25T12:56:17.873Z,100667.63
2022-12-25T12:58:51.115Z,100670.04
2022-12-25T13:01:27.926Z,100677.81
2022-12-25T13:04:14.119Z,100676.38
2022-12-25T13:06:45.153Z,100679.23
2022-12-25T13:09:18.527Z,100678.09
2022-12-25T13:11:45.939Z,100683.81
2022-12-25T13:14:20.181Z,100685.39
2022-12-25T13:16:50.054Z,100688.85
2022-12-25T13:19:27.026Z,100685.22
2022-12-25T13:21:58.065Z,100689.95
2022-12-25T13:24:27.727Z,100696.32
2022-12-25T13:26:55.214Z,100690.42
2022-12-25T13:29:32.618Z,100685.76
2022-12-25T13:32:02.169Z,100680.37
2022-12-25T13:34:41.174Z,100679.44
2022-12-25T13:37:09.897Z,100673.28
2022-12-25T13:39:46.218Z,100677.97
2022-12-25T13:42:20.786Z,100684.97
2022-12-25T13:45:14.294Z,100680.86
2022-12-25T13:47:51.387Z,100679.29
2022-12-25T13:50:30.672Z,100673.48
2022-12-25T13:53:10.347Z,100681.65
2022-12-25T13:55:37.979Z,100695.45
2022-12-25T13:58:07.869Z,100698.36
2022-12-25T14:00:44.337Z,100702.71
2022-12-25T14:03:22.142Z,100698.33
2022-12-25T14:06:16.912Z,100696.91
2022-12-25T14:08:44.689Z,100699.01
2022-12-25T14:11:16.083Z,100698.92
2022-12-25T14:13:45.892Z,100692.97
2022-12-25T14:16:17.156Z,100692.58
2022-12-25T14:19:00.339Z,100695.89
2022-12-25T14:21:35.124Z,100704.89
2022-12-25T14:24:02.937Z,100704.93
2022-12-25T14:26:33.462Z,100706.41
2022-12-25T14:29:16.506Z,100709.60
2022-12-25T14:31:46.258Z,100716.17
2022-12-25T14:34:20.902Z,100725.60
2022-12-25T14:36:48.896Z,100728.15
2022-12-25T14:39:31.594Z,100732.69
2022-12-25T14:41:59.266Z,100736.59
2022-12-25T14:44:29.574Z,100739.89
2022-12-25T14:47:11.394Z,100741.36
2022-12-25T14:49:39.407Z,100739.80
2022-12-25T14:52:42.387Z,100735.81
2022-12-25T14:55:20.439Z,100735.55
2022-12-25T14:57:50.017Z,100733.45
2022-12-25T15:00:31.920Z,100732.40
2022-12-25T15:03:00.475Z,100737.98
2022-12-25T15:05:30.747Z,100730.55
2022-12-25T15:08:03.897Z,100726.77
2022-12-25T15:13:18.597Z,100724.37
2022-12-25T15:15:58.775Z,100732.27
2022-12-25T15:18:30.949Z,100732.56
2022-12-25T15:20:58.399Z,100725.67
2022-12-25T15:23:25.705Z,100720.17
2022-12-25T15:25:53.095Z,100715.96
2022-12-25T15:28:20.912Z,100712.98
2022-12-25T15:30:49.842Z,100717.59
2022-12-25T15:33:19.342Z,100723.27
2022-12-25T15:35:46.922Z,100721.58
2022-12-25T15:38:14.252Z,100716.70
2022-12-25T15:40:42.137Z,100713.77
2022-12-25T15:43:38.886Z,100710.17
2022-12-25T15:46:01.303Z,100702.91
2022-12-25T15:48:28.478Z,100702.17
2022-12-25T15:50:55.695Z,100703.36
2022-12-25T15:53:22.825Z,100706.98
2022-12-25T15:55:49.922Z,100708.30
2022-12-25T15:58:17.055Z,100711.93
2022-12-25T16:00:44.152Z,100715.16
2022-12-25T16:03:11.376Z,100718.64
2022-12-25T16:05:38.674Z,100713.52
2022-12-25T16:08:05.952Z,100711.17
2022-12-25T16:10:38.382Z,100713.64
2022-12-25T16:13:06.427Z,100723.48
2022-12-25T16:15:33.603Z,100735.05
2022-12-25T16:18:00.774Z,100736.23
2022-12-25T16:20:27.963Z,100738.13
2022-12-25T16:22:55.106Z,100740.14
2022-12-25T16:25:22.380Z,100738.27
2022-12-25T16:27:49.789Z,100738.41
2022-12-25T16:30:18.341Z,100735.89
2022-12-25T16:32:49.500Z,100727.80
2022-12-25T16:35:17.920Z,100727.48
2022-12-25T16:37:45.044Z,100725.17
2022-12-25T16:40:12.413Z,100725.36
2022-12-25T16:42:39.681Z,100726.75
2022-12-25T16:45:07.423Z,100721.04
2022-12-25T16:47:34.828Z,100722.45
2022-12-25T16:50:03.698Z,100718.01
2022-12-25T16:52:34.808Z,100716.25
2022-12-25T16:55:03.403Z,100715.36
2022-12-25T16:57:32.649Z,100719.38
2022-12-25T17:00:00.665Z,100718.02
2022-12-25T17:02:28.116Z,100715.19
2022-12-25T17:04:55.451Z,100716.27
2022-12-25T17:07:22.504Z,100713.70
2022-12-25T17:09:49.988Z,100715.95
2022-12-25T17:12:17.521Z,100717.58
2022-12-25T17:14:44.709Z,100712.95
2022-12-25T17:17:11.874Z,100706.02
2022-12-25T17:19:39.284Z,100702.11
2022-12-25T17:22:07.547Z,100694.16
2022-12-25T17:24:37.400Z,100687.93
2022-12-25T17:27:08.668Z,100683.87
2022-12-25T17:29:38.453Z,100681.95
2022-12-25T17:32:08.217Z,100682.05
2022-12-25T17:34:35.599Z,100685.67
2022-12-25T17:37:02.819Z,100684.75
2022-12-25T17:39:30.052Z,100681.98
2022-12-25T17:41:57.238Z,100685.90
2022-12-25T17:44:24.374Z,100684.87
2022-12-25T17:46:52.159Z,100683.48
2022-12-25T17:49:21.513Z,100684.27
2022-12-25T17:51:49.151Z,100685.89
2022-12-25T17:54:16.285Z,100684.30
2022-12-25T17:56:43.396Z,100680.80
2022-12-25T17:59:18.217Z,100682.45
2022-12-25T18:01:47.179Z,100679.52
2022-12-25T18:04:14.512Z,100668.45
2022-12-25T18:06:41.832Z,100665.09
2022-12-25T18:09:11.264Z,100666.13
2022-12-25T18:11:41.100Z,100672.52
2022-12-25T18:14:11.642Z,100675.23
2022-12-25T18:16:42.131Z,100673.09
2022-12-25T18:19:11.080Z,100674.38
2022-12-25T18:21:38.414Z,100673.08
2022-12-25T18:24:07.513Z,100675.04
2022-12-25T18:26:35.261Z,100674.91
2022-12-25T18:29:03.099Z,100667.47
2022-12-25T18:31:33.032Z,100662.56
2022-12-25T18:34:00.862Z,100662.18
2022-12-25T18:36:29.621Z,100659.33
2022-12-25T18:38:58.013Z,100658.91
2022-12-25T18:41:25.385Z,100654.80
2022-12-25T18:43:55.672Z,100653.98
2022-12-25T18:46:25.899Z,100654.48
2022-12-25T18:48:55.126Z,100647.98
2022-12-25T18:51:22.450Z,100645.41
2022-12-25T18:53:49.980Z,100642.69
2022-12-25T18:56:18.549Z,100639.57
2022-12-25T18:58:46.917Z,100636.23
2022-12-25T19:01:22.475Z,100630.67
2022-12-25T19:03:49.924Z,100625.48
2022-12-25T19:06:25.393Z,100619.02
2022-12-25T19:08:53.009Z,100618.13
2022-12-25T19:11:21.002Z,100614.20
2022-12-25T19:13:48.388Z,100611.64
2022-12-25T19:16:17.427Z,100607.31
2022-12-25T19:18:45.938Z,100607.98
2022-12-25T19:21:13.109Z,100605.05
2022-12-25T19:23:40.492Z,100604.14
2022-12-25T19:26:09.764Z,100599.19
2022-12-25T19:28:38.048Z,100602.29
2022-12-25T19:31:07.691Z,100605.75
2022-12-25T19:33:37.006Z,100608.77
2022-12-25T19:36:10.379Z,100603.95
2022-12-25T19:38:37.939Z,100605.79
2022-12-25T19:41:14.460Z,100589.52
2022-12-25T19:43:42.587Z,100586.88
2022-12-25T19:46:19.025Z,100587.80
2022-12-25T19:48:46.740Z,100590.14
2022-12-25T19:51:18.999Z,100592.48
2022-12-25T19:53:46.914Z,100584.92
2022-12-25T19:56:15.077Z,100584.85
2022-12-25T19:58:42.434Z,100583.73
2022-12-25T20:01:13.620Z,100578.83
2022-12-25T20:03:46.656Z,100583.44
2022-12-25T20:06:18.965Z,100585.03
2022-12-25T20:08:57.991Z,100577.67
2022-12-25T20:11:27.976Z,100569.73
2022-12-25T20:13:56.113Z,100566.88
2022-12-25T20:16:24.188Z,100570.72
2022-12-25T20:18:51.906Z,100568.69
2022-12-25T20:21:22.192Z,100562.13
2022-12-25T20:23:51.771Z,100560.45
2022-12-25T20:26:22.780Z,100560.38
2022-12-25T20:28:50.325Z,100562.09
2022-12-25T20:31:23.394Z,100564.55
2022-12-25T20:33:50.951Z,100561.65
2022-12-25T20:36:19.039Z,100552.05
2022-12-25T20:38:46.199Z,100551.30
2022-12-25T20:41:31.454Z,100553.73
2022-12-25T20:43:58.738Z,100552.41
2022-12-25T20:46:27.586Z,100555.56
2022-12-25T20:48:55.028Z,100558.70
2022-12-25T20:51:24.874Z,100554.24
2022-12-25T20:53:53.137Z,100543.62
2022-12-25T20:56:22.848Z,100539.12
2022-12-25T20:58:58.310Z,100535.64
2022-12-25T21:01:29.204Z,100529.05
2022-12-25T21:03:57.221Z,100523.95
2022-12-25T21:06:24.925Z,100519.89
2022-12-25T21:08:52.044Z,100512.33
2022-12-25T21:11:21.472Z,100511.31
2022-12-25T21:13:49.164Z,100500.93
2022-12-25T21:16:20.381Z,100502.41
2022-12-25T21:18:49.200Z,100500.22
2022-12-25T21:21:16.537Z,100497.20
2022-12-25T21:23:44.072Z,100496.27
2022-12-25T21:26:23.076Z,100495.84
2022-12-25T21:28:52.704Z,100494.92
2022-12-25T21:31:20.859Z,100482.65
2022-12-25T21:33:53.807Z,100479.19
2022-12-25T21:36:25.301Z,100476.36
2022-12-25T21:38:57.638Z,100478.35
2022-12-25T21:41:25.940Z,100482.13
2022-12-25T21:43:53.810Z,100478.38
2022-12-25T21:46:21.603Z,100477.55
2022-12-25T21:48:49.207Z,100470.55
2022-12-25T21:51:40.935Z,100464.55
2022-12-25T21:54:08.978Z,100459.88
2022-12-25T21:56:43.622Z,100447.33
2022-12-25T21:59:15.599Z,100435.27
2022-12-25T22:01:43.209Z,100429.67
2022-12-25T22:04:11.699Z,100426.28
2022-12-25T22:06:57.894Z,100422.57
2022-12-25T22:09:25.284Z,100415.66
2022-12-25T22:12:10.955Z,100411.59
2022-12-25T22:14:54.061Z,100410.91
2022-12-25T22:17:48.109Z,100410.73
2022-12-25T22:20:22.072Z,100411.00
2022-12-25T22:22:49.423Z,100406.45
2022-12-25T22:25:17.504Z,100402.67
2022-12-25T22:27:46.694Z,100396.36
2022-12-25T22:30:21.956Z,100393.54
2022-12-25T22:32:49.494Z,100385.02
2022-12-25T22:35:17.286Z,100368.48
2022-12-25T22:37:44.594Z,100357.63
2022-12-25T22:40:16.270Z,100356.27
2022-12-25T22:42:43.653Z,100360.77
2022-12-25T22:45:12.062Z,100358.34
2022-12-25T22:47:39.466Z,100358.04
2022-12-25T22:50:07.072Z,100357.75
2022-12-25T22:52:34.307Z,100355.92
2022-12-25T22:55:02.600Z,100353.36
2022-12-25T22:57:29.811Z,100344.40
2022-12-25T22:59:57.090Z,100346.35
2022-12-25T23:02:24.416Z,100335.02
2022-12-25T23:04:51.728Z,100321.08
2022-12-25T23:07:19.122Z,100312.45
2022-12-25T23:09:46.559Z,100315.70
2022-12-25T23:12:33.736Z,100307.77
2022-12-25T23:15:00.906Z,100304.20
2022-12-25T23:17:46.624Z,100297.42
2022-12-25T23:20:33.523Z,100308.98
2022-12-25T23:23:19.623Z,100315.80
2022-12-25T23:26:05.372Z,100314.89
2022-12-25T23:28:51.095Z,100305.27
2022-12-25T23:31:20.743Z,100312.23
2022-12-25T23:33:48.014Z,100321.42
2022-12-25T23:36:15.211Z,100317.42
2022-12-25T23:38:42.391Z,100309.30
2022-12-25T23:41:09.542Z,100315.59
2022-12-25T23:43:36.731Z,100316.85
2022-12-25T23:46:04.038Z,100319.11
2022-12-25T23:48:31.354Z,100319.27
2022-12-25T23:51:03.953Z,100309.84
2022-12-25T23:53:32.000Z,100300.04
2022-12-25T23:55:59.865Z,100292.52
2022-12-25T23:58:28.500Z,100286.91
